Time;durP1;ratioP1;P1;durP2;ratioP2;P2;SDS_P1;SDS_P2;PMS_P1;PMS_P2;Temp;Humidity;BMP_temperature;BMP_pressure;BME280_temperature;BME280_humidity;BME280_pressure;Samples;Min_cycle;Max_cycle;Signal;HPM_P1;HPM_P2
2023/07/16 00:00:12;;;;;;;7.65;3.72;;;17.40;99.90;;;;;;5052412;28;20048;-69
2023/07/16 00:02:38;;;;;;;5.75;3.15;;;17.40;99.90;;;;;;5051747;28;20558;-71
2023/07/16 00:05:04;;;;;;;9.20;3.08;;;17.40;99.90;;;;;;5052282;28;20041;-70
2023/07/16 00:07:30;;;;;;;6.43;3.17;;;17.40;99.90;;;;;;5018433;28;20109;-70
2023/07/16 00:09:56;;;;;;;3.33;2.55;;;17.40;99.90;;;;;;5052318;28;20491;-69
2023/07/16 00:12:21;;;;;;;4.88;2.78;;;17.30;99.90;;;;;;5052218;28;20067;-71
2023/07/16 00:14:47;;;;;;;6.60;2.88;;;17.30;99.90;;;;;;5034801;28;20095;-70
2023/07/16 00:17:13;;;;;;;6.07;2.85;;;17.30;99.90;;;;;;5052604;28;20102;-70
2023/07/16 00:19:39;;;;;;;8.38;2.95;;;17.20;99.90;;;;;;5052916;28;20052;-70
2023/07/16 00:22:05;;;;;;;6.65;3.20;;;17.30;99.90;;;;;;5034845;28;20458;-71
2023/07/16 00:24:30;;;;;;;6.30;3.05;;;17.30;99.90;;;;;;5034424;28;20087;-72
2023/07/16 00:26:57;;;;;;;3.60;2.47;;;17.20;99.90;;;;;;5052442;28;20075;-69
2023/07/16 00:29:23;;;;;;;6.47;2.85;;;17.20;99.90;;;;;;5052035;28;20041;-71
2023/07/16 00:31:49;;;;;;;5.50;3.25;;;17.20;99.90;;;;;;5052512;28;20048;-69
2023/07/16 00:34:15;;;;;;;11.68;3.30;;;17.10;99.90;;;;;;5052637;28;20056;-70
2023/07/16 00:36:41;;;;;;;3.63;2.97;;;17.10;99.90;;;;;;5051927;28;20495;-70
2023/07/16 00:39:06;;;;;;;7.22;3.10;;;17.10;99.90;;;;;;5034846;28;20055;-71
2023/07/16 00:41:32;;;;;;;5.28;2.50;;;17.00;99.90;;;;;;5035062;28;20509;-72
2023/07/16 00:43:58;;;;;;;7.03;2.95;;;17.00;99.90;;;;;;5052708;28;20090;-70
2023/07/16 00:46:24;;;;;;;9.00;2.90;;;17.00;99.90;;;;;;5021902;28;20131;-70
2023/07/16 00:48:50;;;;;;;6.15;2.53;;;16.90;99.90;;;;;;5038610;28;20462;-71
2023/07/16 00:51:17;;;;;;;10.32;2.92;;;16.90;99.90;;;;;;5056153;28;20434;-70
2023/07/16 00:53:44;;;;;;;5.25;2.90;;;16.90;99.90;;;;;;5056081;28;20052;-70
2023/07/16 00:56:11;;;;;;;5.47;3.67;;;16.90;99.90;;;;;;5055786;28;20041;-72
2023/07/16 00:58:36;;;;;;;8.18;3.03;;;16.90;99.90;;;;;;5055706;28;20409;-71
2023/07/16 01:01:02;;;;;;;10.38;3.13;;;16.90;99.90;;;;;;5055753;28;20052;-70
2023/07/16 01:03:28;;;;;;;7.90;3.10;;;16.90;99.90;;;;;;5034180;28;20136;-70
2023/07/16 01:06:09;;;;;;;9.23;3.50;;;16.90;99.90;;;;;;5035797;28;20038;-71
2023/07/16 01:08:42;;;;;;;10.57;3.50;;;16.90;99.90;;;;;;5035979;28;20084;-70
2023/07/16 01:11:09;;;;;;;5.75;3.47;;;16.90;99.90;;;;;;5034336;28;20048;-69
2023/07/16 01:13:35;;;;;;;7.90;3.28;;;16.90;99.90;;;;;;5035869;28;20042;-70
2023/07/16 01:16:02;;;;;;;8.80;3.67;;;16.90;99.90;;;;;;5035967;28;20056;-70
2023/07/16 01:18:27;;;;;;;6.55;3.55;;;16.90;99.90;;;;;;5034994;28;20403;-71
2023/07/16 01:20:53;;;;;;;7.28;3.10;;;16.90;99.90;;;;;;5035436;28;20056;-70
2023/07/16 01:23:46;;;;;;;5.30;2.88;;;16.90;99.90;;;;;;5033975;28;20511;-70
2023/07/16 01:26:36;;;;;;;6.43;2.70;;;16.90;99.90;;;;;;5034983;28;20049;-71
2023/07/16 01:29:28;;;;;;;7.60;3.10;;;16.80;99.90;;;;;;5035154;28;20041;-70
2023/07/16 01:31:56;;;;;;;6.32;3.17;;;16.70;99.90;;;;;;5034971;28;20538;-70
2023/07/16 01:34:24;;;;;;;7.20;3.42;;;16.70;99.90;;;;;;5035485;28;20064;-72
2023/07/16 01:36:50;;;;;;;8.25;3.38;;;16.70;99.90;;;;;;5035017;28;20057;-70
2023/07/16 01:39:16;;;;;;;7.63;3.10;;;16.70;99.90;;;;;;5035361;28;20064;-70
2023/07/16 01:41:42;;;;;;;5.72;3.08;;;16.60;99.90;;;;;;5035483;28;20156;-70
2023/07/16 01:44:08;;;;;;;7.30;3.40;;;16.60;99.90;;;;;;5035261;28;20069;-70
2023/07/16 01:46:33;;;;;;;6.38;2.85;;;16.60;99.90;;;;;;5035112;28;20056;-73
2023/07/16 01:48:59;;;;;;;6.65;3.20;;;16.50;99.90;;;;;;5035022;28;20088;-70
2023/07/16 01:51:25;;;;;;;9.02;3.28;;;16.60;99.90;;;;;;5034723;28;20041;-70
2023/07/16 01:53:50;;;;;;;7.18;3.00;;;16.50;99.90;;;;;;5034688;28;20053;-70
2023/07/16 01:56:16;;;;;;;8.90;3.22;;;16.50;99.90;;;;;;5033870;28;20053;-70
2023/07/16 01:58:42;;;;;;;7.25;4.10;;;16.50;99.90;;;;;;5034924;28;20045;-71
2023/07/16 02:01:08;;;;;;;5.07;2.95;;;16.50;99.90;;;;;;5034711;28;20053;-70
2023/07/16 02:03:33;;;;;;;9.00;3.50;;;16.50;99.90;;;;;;5052278;28;20059;-72
2023/07/16 02:05:59;;;;;;;7.07;3.58;;;16.50;99.90;;;;;;5036965;28;20057;-70
2023/07/16 02:08:25;;;;;;;6.93;3.10;;;16.50;99.90;;;;;;5036702;28;20477;-70
2023/07/16 02:10:50;;;;;;;7.50;3.63;;;16.60;99.90;;;;;;5054386;28;20448;-69
2023/07/16 02:13:16;;;;;;;4.00;2.95;;;16.50;99.90;;;;;;5054367;28;20110;-69
2023/07/16 02:15:45;;;;;;;7.75;3.33;;;16.60;99.90;;;;;;5054578;28;20099;-69
2023/07/16 02:18:10;;;;;;;12.98;4.38;;;16.60;99.90;;;;;;5054624;28;20087;-69
2023/07/16 02:20:36;;;;;;;8.65;3.17;;;16.60;99.90;;;;;;5036449;28;20049;-70
2023/07/16 02:23:02;;;;;;;6.68;3.40;;;16.60;99.90;;;;;;5037375;28;20040;-70
2023/07/16 02:25:28;;;;;;;5.50;3.53;;;16.60;99.90;;;;;;5053862;28;20147;-72
2023/07/16 02:27:53;;;;;;;10.70;4.70;;;16.60;99.90;;;;;;5036603;28;20045;-71
2023/07/16 02:30:19;;;;;;;7.05;4.35;;;16.60;99.90;;;;;;5053874;28;20102;-73
2023/07/16 02:32:45;;;;;;;9.38;3.67;;;16.70;99.90;;;;;;5054102;28;20053;-69
2023/07/16 02:35:11;;;;;;;7.97;4.32;;;16.70;99.90;;;;;;5036441;28;20163;-69
2023/07/16 02:37:36;;;;;;;9.77;4.30;;;16.70;99.90;;;;;;5053871;28;20052;-71
2023/07/16 02:40:03;;;;;;;6.00;3.63;;;16.70;99.90;;;;;;5053840;28;20044;-70
2023/07/16 02:42:29;;;;;;;7.18;4.55;;;16.70;99.90;;;;;;5019588;28;20053;-70
2023/07/16 02:44:55;;;;;;;7.30;3.90;;;16.70;99.90;;;;;;5053654;28;20049;-71
2023/07/16 02:47:20;;;;;;;6.18;3.95;;;16.70;99.90;;;;;;5053723;28;20135;-69
2023/07/16 02:49:46;;;;;;;7.82;4.20;;;16.70;99.90;;;;;;5053685;28;20044;-70
2023/07/16 02:52:12;;;;;;;9.60;4.00;;;16.70;99.90;;;;;;5053698;28;20096;-69
2023/07/16 02:54:37;;;;;;;7.95;4.22;;;16.70;99.90;;;;;;5035678;28;20049;-71
2023/07/16 02:57:03;;;;;;;11.13;4.90;;;16.70;99.90;;;;;;5035660;28;20049;-70
2023/07/16 02:59:29;;;;;;;5.50;4.50;;;16.70;99.90;;;;;;5053846;28;20045;-70
2023/07/16 03:01:55;;;;;;;7.30;3.88;;;16.70;99.90;;;;;;5053312;28;20481;-71
2023/07/16 03:04:21;;;;;;;7.53;4.50;;;16.80;99.90;;;;;;5053812;28;20466;-69
2023/07/16 03:06:46;;;;;;;7.45;4.60;;;16.80;99.90;;;;;;5053392;28;20073;-70
2023/07/16 03:09:12;;;;;;;5.70;3.65;;;16.80;99.90;;;;;;5035832;28;20503;-69
2023/07/16 03:11:37;;;;;;;10.25;5.15;;;16.80;99.90;;;;;;5053975;28;20084;-70
2023/07/16 03:14:03;;;;;;;7.78;4.32;;;16.80;99.90;;;;;;5036239;28;20048;-69
2023/07/16 03:16:29;;;;;;;11.10;4.50;;;16.80;99.90;;;;;;5053078;28;20084;-71
2023/07/16 03:18:54;;;;;;;7.00;4.05;;;16.70;99.90;;;;;;5053100;28;20037;-71
2023/07/16 03:21:20;;;;;;;8.65;3.90;;;16.70;99.90;;;;;;5053056;28;20056;-71
2023/07/16 03:23:46;;;;;;;8.25;5.80;;;16.70;99.90;;;;;;5053005;28;20095;-71
2023/07/16 03:26:11;;;;;;;7.20;4.50;;;16.70;99.90;;;;;;5035321;28;20056;-70
2023/07/16 03:28:37;;;;;;;7.28;4.35;;;16.80;99.90;;;;;;5053164;28;20461;-70
2023/07/16 03:31:03;;;;;;;10.60;5.18;;;16.70;99.90;;;;;;5035316;28;20053;-73
2023/07/16 03:33:29;;;;;;;10.98;4.70;;;16.70;99.90;;;;;;5053550;28;20052;-70
2023/07/16 03:35:55;;;;;;;10.40;5.25;;;16.70;99.90;;;;;;5053178;28;20055;-72
2023/07/16 03:38:20;;;;;;;7.78;4.13;;;16.70;99.90;;;;;;5052884;28;20449;-69
2023/07/16 03:40:48;;;;;;;8.52;4.15;;;16.70;99.90;;;;;;5034923;28;20132;-69
2023/07/16 03:43:15;;;;;;;15.35;5.00;;;16.70;99.90;;;;;;5052841;28;20080;-73
2023/07/16 03:45:40;;;;;;;7.72;3.95;;;16.70;99.90;;;;;;5052653;28;20041;-70
2023/07/16 03:48:06;;;;;;;7.95;4.43;;;16.70;99.90;;;;;;5034984;28;20094;-70
2023/07/16 03:50:32;;;;;;;10.60;4.45;;;16.70;99.90;;;;;;5052413;28;20044;-70
2023/07/16 03:52:57;;;;;;;9.25;4.03;;;16.60;99.90;;;;;;5035430;28;20048;-72
2023/07/16 03:55:23;;;;;;;7.78;4.75;;;16.60;99.90;;;;;;5036158;28;20085;-71
2023/07/16 03:57:49;;;;;;;7.55;5.15;;;16.60;99.90;;;;;;5053782;28;20516;-72
2023/07/16 04:00:14;;;;;;;9.85;4.45;;;16.60;99.90;;;;;;5053221;28;20045;-70
2023/07/16 04:02:40;;;;;;;7.50;4.75;;;16.70;99.90;;;;;;5034860;28;20061;-71
2023/07/16 04:05:06;;;;;;;11.30;4.60;;;16.70;99.90;;;;;;5052325;28;20504;-70
2023/07/16 04:07:32;;;;;;;8.45;5.05;;;16.70;99.90;;;;;;5052433;28;20071;-70
2023/07/16 04:09:58;;;;;;;7.18;4.57;;;16.70;99.90;;;;;;5052338;28;20533;-70
2023/07/16 04:12:23;;;;;;;10.93;4.88;;;16.70;99.90;;;;;;5052417;28;20051;-71
2023/07/16 04:14:54;;;;;;;7.22;4.57;;;16.70;99.90;;;;;;5052263;28;20119;-71
2023/07/16 04:17:21;;;;;;;6.95;4.82;;;16.70;99.90;;;;;;5052894;28;20057;-72
2023/07/16 04:19:46;;;;;;;8.70;4.53;;;16.80;99.90;;;;;;5054303;28;20057;-71
2023/07/16 04:22:12;;;;;;;7.88;5.30;;;16.80;99.90;;;;;;5056767;28;20045;-70
2023/07/16 04:24:37;;;;;;;8.73;4.97;;;16.80;99.90;;;;;;5056033;28;20053;-70
2023/07/16 04:27:03;;;;;;;12.75;5.45;;;16.80;99.90;;;;;;5056057;28;20057;-73
2023/07/16 04:29:29;;;;;;;12.40;5.80;;;16.80;99.90;;;;;;5038409;28;20045;-71
2023/07/16 04:31:55;;;;;;;10.32;4.63;;;16.80;99.90;;;;;;5038520;28;20477;-73
2023/07/16 04:34:20;;;;;;;9.18;5.05;;;16.90;99.90;;;;;;5056107;28;20048;-71
2023/07/16 04:36:46;;;;;;;10.48;5.88;;;16.90;99.90;;;;;;5038560;28;20074;-71
2023/07/16 04:39:12;;;;;;;8.93;4.53;;;16.90;99.90;;;;;;5056236;28;20045;-69
2023/07/16 04:41:38;;;;;;;11.35;5.10;;;17.00;99.90;;;;;;5056214;28;20057;-71
2023/07/16 04:44:04;;;;;;;8.95;4.97;;;17.00;99.90;;;;;;5038270;28;20052;-71
2023/07/16 04:46:30;;;;;;;10.55;5.00;;;17.00;99.90;;;;;;5038818;28;20370;-70
2023/07/16 04:48:56;;;;;;;10.15;5.90;;;17.00;99.90;;;;;;5037916;28;20055;-71
2023/07/16 04:51:22;;;;;;;8.27;4.78;;;17.10;99.90;;;;;;5055841;28;20041;-71
2023/07/16 04:53:48;;;;;;;9.18;5.13;;;17.10;99.90;;;;;;5055996;28;20048;-71
2023/07/16 04:56:15;;;;;;;12.48;5.75;;;17.20;99.90;;;;;;5055360;28;20393;-71
2023/07/16 04:58:42;;;;;;;9.07;5.00;;;17.20;99.90;;;;;;5038328;28;20045;-69
2023/07/16 05:01:08;;;;;;;16.08;5.63;;;17.30;99.90;;;;;;5055930;28;20055;-71
2023/07/16 05:03:34;;;;;;;9.02;5.10;;;17.30;99.90;;;;;;5055752;28;20478;-71
2023/07/16 05:06:00;;;;;;;10.50;5.43;;;17.30;99.90;;;;;;5055421;28;20130;-71
2023/07/16 05:08:26;;;;;;;7.82;4.53;;;17.30;99.90;;;;;;5055764;28;20045;-70
2023/07/16 05:10:52;;;;;;;7.35;4.75;;;17.40;99.90;;;;;;5055421;28;20056;-72
2023/07/16 05:13:17;;;;;;;11.10;5.03;;;17.40;99.90;;;;;;5037400;28;20048;-70
2023/07/16 05:15:46;;;;;;;8.23;4.97;;;17.40;99.90;;;;;;5055868;28;20102;-69
2023/07/16 05:18:12;;;;;;;9.52;4.28;;;17.50;99.90;;;;;;5055060;28;20092;-72
2023/07/16 05:20:38;;;;;;;9.82;4.70;;;17.50;99.90;;;;;;5055671;28;20045;-70
2023/07/16 05:23:03;;;;;;;11.07;4.43;;;17.50;99.90;;;;;;5055381;28;20457;-71
2023/07/16 05:25:29;;;;;;;9.00;4.72;;;17.60;99.90;;;;;;5037296;28;20565;-70
2023/07/16 05:27:56;;;;;;;7.22;4.38;;;17.60;99.90;;;;;;5037063;28;20053;-72
2023/07/16 05:30:21;;;;;;;7.13;4.10;;;17.70;99.90;;;;;;5054720;28;20536;-70
2023/07/16 05:32:47;;;;;;;8.05;4.38;;;17.70;99.90;;;;;;5055192;28;20045;-71
2023/07/16 05:35:13;;;;;;;9.23;4.30;;;17.80;99.90;;;;;;5055175;28;20452;-71
2023/07/16 05:37:38;;;;;;;8.73;4.15;;;17.90;99.90;;;;;;5055253;28;20453;-69
2023/07/16 05:40:05;;;;;;;11.02;5.13;;;17.90;99.90;;;;;;5037259;28;20477;-72
2023/07/16 05:42:31;;;;;;;9.82;3.75;;;18.00;99.90;;;;;;5055306;28;20064;-70
2023/07/16 05:44:57;;;;;;;6.03;4.45;;;18.10;99.90;;;;;;5037019;28;20391;-69
2023/07/16 05:47:22;;;;;;;10.25;4.20;;;18.10;99.90;;;;;;5037584;28;20159;-70
2023/07/16 05:49:48;;;;;;;11.82;4.90;;;18.30;99.90;;;;;;5055158;28;20494;-70
2023/07/16 05:52:14;;;;;;;8.27;4.10;;;18.30;99.90;;;;;;5055238;28;20150;-72
2023/07/16 05:54:39;;;;;;;10.07;4.18;;;18.30;99.90;;;;;;5054591;28;20049;-72
2023/07/16 05:57:05;;;;;;;7.72;4.00;;;18.40;99.90;;;;;;5036782;28;20044;-71
2023/07/16 05:59:36;;;;;;;10.02;4.60;;;18.50;99.90;;;;;;5037026;28;20057;-69
2023/07/16 06:02:01;;;;;;;7.03;3.78;;;18.50;99.90;;;;;;5054718;28;20057;-70
2023/07/16 06:04:27;;;;;;;5.63;4.35;;;18.60;99.90;;;;;;5020362;28;20052;-70
2023/07/16 06:06:53;;;;;;;10.90;4.45;;;18.70;99.90;;;;;;5054317;28;20041;-70
2023/07/16 06:09:19;;;;;;;12.10;4.47;;;18.70;99.90;;;;;;5036938;28;20045;-72
2023/07/16 06:11:48;;;;;;;10.57;4.25;;;19.00;99.90;;;;;;5054334;28;20179;-70
2023/07/16 06:14:14;;;;;;;7.80;3.83;;;19.10;99.90;;;;;;5054044;28;20525;-72
2023/07/16 06:16:40;;;;;;;7.13;3.83;;;19.20;99.90;;;;;;5054123;28;20081;-71
2023/07/16 06:19:05;;;;;;;7.25;3.92;;;19.40;99.90;;;;;;5054145;28;20047;-70
2023/07/16 06:21:31;;;;;;;8.77;4.22;;;19.60;99.90;;;;;;5036245;28;20053;-69
2023/07/16 06:23:57;;;;;;;10.60;4.80;;;19.80;99.90;;;;;;5054070;28;20537;-75
2023/07/16 06:26:22;;;;;;;8.52;4.40;;;19.90;99.90;;;;;;5020165;28;20134;-70
2023/07/16 06:28:49;;;;;;;5.43;4.03;;;19.80;99.90;;;;;;5036957;28;20048;-69
2023/07/16 06:31:18;;;;;;;7.43;3.65;;;20.00;99.90;;;;;;5054460;28;20055;-71
2023/07/16 06:33:46;;;;;;;7.82;4.20;;;20.00;99.90;;;;;;5054074;28;20044;-72
2023/07/16 06:36:12;;;;;;;7.30;3.33;;;20.50;99.90;;;;;;5054330;28;20059;-68
2023/07/16 06:38:38;;;;;;;9.68;4.93;;;20.90;99.60;;;;;;5053892;28;20049;-70
2023/07/16 06:41:04;;;;;;;9.27;4.22;;;20.90;99.40;;;;;;5036145;28;20049;-72
2023/07/16 06:43:29;;;;;;;9.25;4.40;;;21.30;99.80;;;;;;5053103;28;20053;-70
2023/07/16 06:45:55;;;;;;;8.65;4.55;;;20.90;99.40;;;;;;5036600;28;20084;-74
2023/07/16 06:48:21;;;;;;;7.50;4.13;;;21.00;99.50;;;;;;5053988;28;20041;-69
2023/07/16 06:50:46;;;;;;;6.63;3.97;;;21.10;98.80;;;;;;5053702;28;20072;-74
2023/07/16 06:53:12;;;;;;;6.05;4.53;;;21.40;99.00;;;;;;5054430;28;20098;-70
2023/07/16 06:55:38;;;;;;;6.82;4.10;;;21.50;98.20;;;;;;5054032;28;20513;-70
2023/07/16 06:58:03;;;;;;;8.60;4.20;;;22.00;98.40;;;;;;5035582;28;20043;-70
2023/07/16 07:00:29;;;;;;;13.02;5.20;;;22.00;97.50;;;;;;5053303;28;20045;-70
2023/07/16 07:02:55;;;;;;;7.68;4.93;;;22.40;97.80;;;;;;5053971;28;20079;-72
2023/07/16 07:05:21;;;;;;;6.88;4.75;;;22.80;97.00;;;;;;5053333;28;20098;-69
2023/07/16 07:07:46;;;;;;;7.20;4.32;;;22.70;96.20;;;;;;5035523;28;20135;-70
2023/07/16 07:10:13;;;;;;;7.78;4.75;;;22.30;97.30;;;;;;5035492;28;20100;-69
2023/07/16 07:12:39;;;;;;;6.43;4.47;;;21.80;97.30;;;;;;5053285;28;20541;-69
2023/07/16 07:15:08;;;;;;;4.70;4.30;;;21.30;97.60;;;;;;5053796;28;20044;-70
2023/07/16 07:17:34;;;;;;;8.13;4.53;;;20.90;97.60;;;;;;5053177;28;20124;-70
2023/07/16 07:20:01;;;;;;;6.00;4.10;;;20.60;98.00;;;;;;5019383;28;20091;-70
2023/07/16 07:22:26;;;;;;;6.95;4.72;;;20.80;98.20;;;;;;5053144;28;20049;-69
2023/07/16 07:24:52;;;;;;;8.77;4.68;;;21.10;98.10;;;;;;5053088;28;20092;-69
2023/07/16 07:27:18;;;;;;;7.13;4.28;;;21.30;97.90;;;;;;5053086;28;20045;-68
2023/07/16 07:29:43;;;;;;;7.88;4.82;;;21.20;97.30;;;;;;5035561;28;20041;-71
2023/07/16 07:32:10;;;;;;;7.50;4.63;;;20.90;97.10;;;;;;5053287;28;20362;-70
2023/07/16 07:34:36;;;;;;;10.02;4.50;;;21.20;97.80;;;;;;5053102;28;20079;-68
2023/07/16 07:37:02;;;;;;;7.53;4.13;;;21.70;97.20;;;;;;5019060;28;20071;-70
2023/07/16 07:39:27;;;;;;;9.32;4.90;;;21.70;97.10;;;;;;5052737;28;20079;-71
2023/07/16 07:41:53;;;;;;;5.43;4.00;;;21.40;95.80;;;;;;5053164;28;20045;-68
2023/07/16 07:44:18;;;;;;;9.30;4.13;;;21.10;96.80;;;;;;5053054;28;20535;-69
2023/07/16 07:46:44;;;;;;;8.95;4.55;;;21.00;97.20;;;;;;5052624;28;20113;-72
2023/07/16 07:49:10;;;;;;;8.55;4.50;;;21.00;97.20;;;;;;5018970;28;20041;-72
2023/07/16 07:51:35;;;;;;;11.93;5.70;;;21.40;97.30;;;;;;5054193;28;20053;-70
2023/07/16 07:54:01;;;;;;;10.98;5.13;;;21.80;97.00;;;;;;5053542;28;20037;-71
2023/07/16 07:56:27;;;;;;;8.85;4.40;;;21.80;96.90;;;;;;5054169;28;20041;-69
2023/07/16 07:58:52;;;;;;;7.28;4.53;;;21.70;96.50;;;;;;5053479;28;20470;-70
2023/07/16 08:01:18;;;;;;;5.28;3.88;;;21.70;96.70;;;;;;5035571;28;20049;-69
2023/07/16 08:03:44;;;;;;;8.98;4.35;;;21.90;96.30;;;;;;5052858;28;20128;-70
2023/07/16 08:06:11;;;;;;;5.75;4.40;;;22.00;96.20;;;;;;5053205;28;20457;-72
2023/07/16 08:08:37;;;;;;;6.55;4.30;;;22.10;96.10;;;;;;5035018;28;20037;-71
2023/07/16 08:11:03;;;;;;;7.38;4.50;;;21.90;96.30;;;;;;5052434;28;20136;-70
2023/07/16 08:13:28;;;;;;;5.40;4.35;;;21.70;96.30;;;;;;5052139;28;20040;-70
2023/07/16 08:15:54;;;;;;;5.38;3.90;;;21.50;95.90;;;;;;5051897;28;20049;-72
2023/07/16 08:18:20;;;;;;;5.53;3.80;;;21.40;96.20;;;;;;5051990;28;20045;-70
2023/07/16 08:20:47;;;;;;;7.82;4.63;;;21.20;96.20;;;;;;5052328;28;20060;-71
2023/07/16 08:23:12;;;;;;;8.18;4.72;;;21.20;96.50;;;;;;5034291;28;20047;-70
2023/07/16 08:25:38;;;;;;;7.90;4.45;;;21.20;96.80;;;;;;5034442;28;20044;-70
2023/07/16 08:28:04;;;;;;;8.20;4.43;;;21.20;96.80;;;;;;5051985;28;20187;-70
2023/07/16 08:30:31;;;;;;;8.88;4.75;;;21.10;96.60;;;;;;5034477;28;20458;-68
2023/07/16 08:32:57;;;;;;;6.63;4.25;;;21.20;96.80;;;;;;5034433;28;20048;-66
2023/07/16 08:35:23;;;;;;;5.90;3.88;;;21.60;97.40;;;;;;5017941;28;20110;-66
2023/07/16 08:37:48;;;;;;;7.40;5.05;;;21.90;97.10;;;;;;5051825;28;20070;-67
2023/07/16 08:40:14;;;;;;;7.22;4.68;;;21.90;96.50;;;;;;5034310;28;20060;-69
2023/07/16 08:42:42;;;;;;;11.65;4.40;;;21.70;96.40;;;;;;5052180;28;20055;-69
2023/07/16 08:45:10;;;;;;;4.65;4.03;;;21.50;96.80;;;;;;5051747;28;20048;-68
2023/07/16 08:47:36;;;;;;;8.27;4.22;;;21.20;96.20;;;;;;5051776;28;20080;-67
2023/07/16 08:50:02;;;;;;;7.82;4.68;;;21.30;96.70;;;;;;5034057;28;20092;-67
2023/07/16 08:52:29;;;;;;;7.72;4.95;;;21.70;96.60;;;;;;5052337;28;20182;-69
2023/07/16 08:54:55;;;;;;;9.65;4.38;;;22.00;96.50;;;;;;5051456;28;20493;-69
2023/07/16 08:57:21;;;;;;;7.65;4.50;;;22.40;96.20;;;;;;5051573;28;20048;-65
2023/07/16 08:59:51;;;;;;;11.57;4.55;;;23.10;95.80;;;;;;5051979;28;20132;-66
2023/07/16 09:02:18;;;;;;;9.52;4.50;;;23.90;95.20;;;;;;5051634;28;20057;-66
2023/07/16 09:04:46;;;;;;;7.90;4.30;;;23.90;94.50;;;;;;5051949;28;20053;-67
2023/07/16 09:07:12;;;;;;;8.43;4.15;;;24.40;94.40;;;;;;5055433;28;20085;-66
2023/07/16 09:09:37;;;;;;;4.82;4.03;;;24.60;94.00;;;;;;5055178;28;20134;-70
2023/07/16 09:12:03;;;;;;;12.50;5.80;;;24.10;93.30;;;;;;5055083;28;20130;-67
2023/07/16 09:14:29;;;;;;;6.55;3.97;;;24.00;93.80;;;;;;5037587;28;20067;-69
2023/07/16 09:16:55;;;;;;;6.45;4.68;;;24.10;93.80;;;;;;5037799;28;20053;-67
2023/07/16 09:19:22;;;;;;;7.25;4.18;;;23.80;93.90;;;;;;5038089;28;20044;-67
2023/07/16 09:21:51;;;;;;;9.40;4.35;;;23.60;94.00;;;;;;5055152;28;20116;-68
2023/07/16 09:24:18;;;;;;;8.70;4.53;;;23.30;93.70;;;;;;5054899;28;20545;-65
2023/07/16 09:26:53;;;;;;;6.57;3.75;;;23.10;93.80;;;;;;5055119;28;20040;-65
2023/07/16 09:29:20;;;;;;;9.85;4.55;;;22.80;93.70;;;;;;5055039;28;20041;-67
2023/07/16 09:32:07;;;;;;;10.45;4.45;;;22.60;94.10;;;;;;5055366;28;20045;-66
2023/07/16 09:34:33;;;;;;;5.50;4.40;;;22.40;93.90;;;;;;5055356;28;20106;-68
2023/07/16 09:37:00;;;;;;;8.07;3.90;;;22.50;94.40;;;;;;5054791;28;20509;-66
2023/07/16 09:39:27;;;;;;;8.80;4.22;;;22.40;94.50;;;;;;5054930;28;20048;-66
2023/07/16 09:41:56;;;;;;;7.18;3.80;;;22.10;93.80;;;;;;5055021;28;20056;-67
2023/07/16 09:44:22;;;;;;;7.85;4.07;;;22.00;94.70;;;;;;5055234;28;20133;-67
2023/07/16 09:46:47;;;;;;;7.50;4.18;;;22.00;94.80;;;;;;5037026;28;20469;-66
2023/07/16 09:49:15;;;;;;;5.97;4.70;;;22.20;95.00;;;;;;5054379;28;20041;-66
2023/07/16 09:51:43;;;;;;;11.98;4.20;;;22.20;94.70;;;;;;5054477;28;20057;-66
2023/07/16 09:54:12;;;;;;;11.70;4.70;;;22.20;94.90;;;;;;5054948;28;20053;-66
2023/07/16 09:56:55;;;;;;;9.00;4.35;;;22.20;95.20;;;;;;5054186;28;20183;-73
2023/07/16 09:59:23;;;;;;;7.72;4.57;;;22.20;95.00;;;;;;5054793;28;20065;-69
2023/07/16 10:01:51;;;;;;;7.22;4.10;;;22.40;94.90;;;;;;5054173;28;20057;-72
2023/07/16 10:04:20;;;;;;;6.40;4.05;;;22.50;94.80;;;;;;5036933;28;20053;-69
2023/07/16 10:06:58;;;;;;;6.72;4.13;;;22.30;94.70;;;;;;5053806;28;20472;-70
2023/07/16 10:09:35;;;;;;;9.27;4.55;;;22.00;93.90;;;;;;5054602;28;20142;-68
2023/07/16 10:12:28;;;;;;;6.82;3.63;;;21.90;94.30;;;;;;5053848;28;20489;-69
2023/07/16 10:15:01;;;;;;;5.80;4.95;;;21.80;94.00;;;;;;5051254;28;20077;-70
2023/07/16 10:17:26;;;;;;;;;;;21.80;94.50;;;;;;5053915;28;20111;-69
2023/07/16 10:19:59;;;;;;;4.93;3.97;;;22.10;94.50;;;;;;5053989;28;20357;-69
2023/07/16 10:22:42;;;;;;;6.55;4.45;;;22.10;94.50;;;;;;5054170;28;20084;-71
2023/07/16 10:25:29;;;;;;;5.85;4.07;;;22.10;94.80;;;;;;5036400;28;20128;-70
2023/07/16 10:27:55;;;;;;;6.10;4.22;;;21.90;94.70;;;;;;5036332;28;20102;-73
2023/07/16 10:30:22;;;;;;;7.80;4.80;;;21.90;95.10;;;;;;5054337;28;20053;-69
2023/07/16 10:32:50;;;;;;;7.60;5.28;;;22.10;94.80;;;;;;5036108;28;20052;-70
2023/07/16 10:35:15;;;;;;;5.57;4.18;;;22.20;94.60;;;;;;5053727;28;20049;-72
2023/07/16 10:37:41;;;;;;;7.40;5.00;;;22.60;94.90;;;;;;5020170;28;20126;-69
2023/07/16 10:40:11;;;;;;;7.20;3.65;;;22.70;93.80;;;;;;5053989;28;20045;-71
2023/07/16 10:42:37;;;;;;;7.18;4.32;;;22.90;94.30;;;;;;5054115;28;20049;-71
2023/07/16 10:45:06;;;;;;;8.05;4.95;;;22.80;94.30;;;;;;5053622;28;20048;-69
2023/07/16 10:47:37;;;;;;;7.45;5.10;;;22.90;94.20;;;;;;5036004;28;20098;-68
2023/07/16 10:50:08;;;;;;;7.82;4.13;;;22.80;94.00;;;;;;5053532;28;20056;-72
2023/07/16 10:52:35;;;;;;;5.80;3.80;;;22.70;94.40;;;;;;5053636;28;20095;-72
2023/07/16 10:55:01;;;;;;;6.28;3.95;;;22.60;94.40;;;;;;5053198;28;20052;-73
2023/07/16 10:57:27;;;;;;;8.23;4.45;;;22.70;94.20;;;;;;5053695;28;20120;-69
2023/07/16 11:00:00;;;;;;;7.25;4.28;;;22.50;94.00;;;;;;5035567;28;20493;-69
2023/07/16 11:02:26;;;;;;;7.63;4.25;;;22.50;94.30;;;;;;5035566;28;20106;-73
2023/07/16 11:04:57;;;;;;;6.47;4.68;;;22.30;94.00;;;;;;5053670;28;20385;-68
2023/07/16 11:07:23;;;;;;;10.82;4.88;;;22.20;94.20;;;;;;5053393;28;20044;-69
2023/07/16 11:09:53;;;;;;;7.72;4.47;;;22.00;93.90;;;;;;5053069;28;20496;-70
2023/07/16 11:12:23;;;;;;;11.00;4.32;;;22.00;94.40;;;;;;5035356;28;20044;-69
2023/07/16 11:14:54;;;;;;;9.10;4.57;;;22.20;94.60;;;;;;5035449;28;20091;-68
2023/07/16 11:17:22;;;;;;;6.70;4.38;;;22.40;94.60;;;;;;5052949;28;20052;-71
2023/07/16 11:19:49;;;;;;;6.03;4.43;;;22.80;94.30;;;;;;5053074;28;20074;-69
2023/07/16 11:22:15;;;;;;;5.85;3.42;;;23.00;94.40;;;;;;5052893;28;20057;-71
2023/07/16 11:24:46;;;;;;;5.47;3.58;;;22.90;94.00;;;;;;5053310;28;20048;-69
2023/07/16 11:27:31;;;;;;;5.68;4.07;;;22.80;93.80;;;;;;5035156;28;20041;-70
2023/07/16 11:29:59;;;;;;;4.68;3.55;;;22.60;93.80;;;;;;5052339;28;20489;-69
2023/07/16 11:32:33;;;;;;;8.77;3.85;;;22.60;94.10;;;;;;5052754;28;20124;-71
2023/07/16 11:35:01;;;;;;;11.15;4.20;;;22.60;94.20;;;;;;5053226;28;20060;-70
2023/07/16 11:37:29;;;;;;;8.77;3.85;;;22.40;94.00;;;;;;5052649;28;20057;-69
2023/07/16 11:40:06;;;;;;;6.78;4.70;;;22.40;93.80;;;;;;5052675;28;20048;-73
2023/07/16 11:42:33;;;;;;;5.70;4.20;;;22.20;94.20;;;;;;5053613;28;20128;-71
2023/07/16 11:45:00;;;;;;;6.78;4.18;;;22.10;94.10;;;;;;5054122;28;20111;-72
2023/07/16 11:47:26;;;;;;;5.13;3.67;;;21.90;94.00;;;;;;5053789;28;20049;-72
2023/07/16 11:49:53;;;;;;;6.75;4.22;;;21.80;94.60;;;;;;5054417;28;20048;-68
2023/07/16 11:52:27;;;;;;;7.63;4.60;;;21.60;94.60;;;;;;5036185;28;20502;-69
2023/07/16 11:54:53;;;;;;;6.57;4.32;;;21.50;94.50;;;;;;5054133;28;20037;-69
2023/07/16 11:57:19;;;;;;;7.15;4.32;;;21.40;95.10;;;;;;5036636;28;20053;-72
2023/07/16 11:59:45;;;;;;;8.82;5.25;;;21.40;95.00;;;;;;5035523;28;20469;-71
2023/07/16 12:02:12;;;;;;;6.22;4.53;;;21.50;95.30;;;;;;5052806;28;20121;-73
2023/07/16 12:04:38;;;;;;;8.80;4.65;;;21.60;95.40;;;;;;5034497;28;20086;-69
2023/07/16 12:07:03;;;;;;;6.70;3.95;;;21.80;95.70;;;;;;5052234;28;20041;-70
2023/07/16 12:09:29;;;;;;;7.63;4.22;;;22.10;95.60;;;;;;5034879;28;20167;-72
2023/07/16 12:11:57;;;;;;;6.80;4.60;;;22.20;95.40;;;;;;5052618;28;20117;-72
2023/07/16 12:14:22;;;;;;;6.60;3.90;;;22.30;95.50;;;;;;5052305;28;20132;-69
2023/07/16 12:16:48;;;;;;;12.77;5.22;;;22.50;95.50;;;;;;5052119;28;20076;-70
2023/07/16 12:19:14;;;;;;;8.48;4.50;;;22.60;95.10;;;;;;5034413;28;20120;-69
2023/07/16 12:21:40;;;;;;;5.60;4.53;;;22.50;94.90;;;;;;5052131;28;20128;-71
2023/07/16 12:24:05;;;;;;;6.63;4.75;;;22.50;94.90;;;;;;5034684;28;20047;-72
2023/07/16 12:26:31;;;;;;;5.80;4.38;;;22.50;95.20;;;;;;5034997;28;20075;-70
2023/07/16 12:28:57;;;;;;;7.13;5.00;;;22.50;95.00;;;;;;5051931;28;20052;-70
2023/07/16 12:31:23;;;;;;;6.95;4.53;;;22.40;95.10;;;;;;5052019;28;20098;-69
2023/07/16 12:33:49;;;;;;;7.57;4.18;;;22.70;95.40;;;;;;5051863;28;20053;-72
2023/07/16 12:36:15;;;;;;;7.53;4.25;;;22.90;95.00;;;;;;5051974;28;20088;-72
2023/07/16 12:38:41;;;;;;;4.90;3.65;;;23.00;95.00;;;;;;5034591;28;20053;-73
2023/07/16 12:41:07;;;;;;;5.93;4.30;;;22.80;95.00;;;;;;5054528;28;20094;-72
2023/07/16 12:43:34;;;;;;;5.03;3.67;;;22.60;94.90;;;;;;5056158;28;20041;-73